.
WxDataArchive / Data Records for 2006-09-15
2006-09-14 September 2006 2006-09-16

Data Records for Friday, 15 September 2006

Time	Temp	Chill	HIndex	Humid	Dewpt	 Wind 	HiWind	WindDir	Rain 	Barom 
-----	----	-----	------	-----	-----	------	------	-------	-----	----- 
00:00	56.6	56.6	56.6	95	55.2	0	0	---	0.00	30.049 
00:05	56.5	56.5	56.5	95	55.1	0	0	---	0.00	30.049 
00:10	56.3	56.3	56.3	95	54.9	0	0	---	0.00	30.049 
00:15	56.3	56.3	56.3	95	54.9	0	0	---	0.00	30.049 
00:20	56.2	56.2	56.2	96	55.1	0	0	---	0.00	30.049 
00:25	56.0	56.0	56.0	96	54.9	0	0	---	0.00	30.049 
00:30	55.9	55.9	55.9	96	54.8	0	0	---	0.00	30.048 
00:35	55.7	55.7	55.7	96	54.6	0	0	---	0.00	30.048 
00:40	55.7	55.7	55.7	96	54.6	0	0	---	0.00	30.048 
00:45	55.7	55.7	55.7	96	54.6	0	0	---	0.00	30.053 
00:50	55.6	55.6	55.6	96	54.5	0	0	---	0.00	30.053 
00:55	55.4	55.4	55.4	96	54.3	0	0	---	0.00	30.053 
01:00	55.4	55.4	55.4	96	54.3	0	0	---	0.00	30.052 
01:05	55.3	55.3	55.3	96	54.2	0	0	---	0.00	30.052 
01:10	55.1	55.1	55.1	96	54.0	0	0	---	0.00	30.052 
01:15	55.1	55.1	55.1	96	54.0	0	0	---	0.00	30.049 
01:20	55.1	55.1	55.1	96	54.0	0	0	---	0.00	30.049 
01:25	55.0	55.0	55.0	96	53.9	0	0	---	0.00	30.049 
01:30	54.8	54.8	54.8	96	53.7	0	0	---	0.00	30.049 
01:35	54.8	54.8	54.8	96	53.7	0	0	---	0.00	30.049 
01:40	54.8	54.8	54.8	96	53.7	0	0	---	0.00	30.049 
01:45	54.8	54.8	54.8	96	53.7	0	0	---	0.00	30.047 
01:50	55.0	55.0	55.0	96	53.9	0	0	---	0.00	30.047 
01:55	54.8	54.8	54.8	96	53.7	0	0	---	0.00	30.047 
02:00	54.8	54.8	54.8	96	53.7	0	0	---	0.00	30.049 
02:05	54.7	54.7	54.7	96	53.6	0	0	---	0.00	30.049 
02:10	54.5	54.5	54.5	96	53.4	0	0	---	0.00	30.049 
02:15	54.5	54.5	54.5	96	53.4	0	0	---	0.00	30.050 
02:20	54.4	54.4	54.4	96	53.3	0	0	---	0.00	30.050 
02:25	54.4	54.4	54.4	96	53.3	0	0	---	0.00	30.050 
02:30	54.2	54.2	54.2	96	53.1	0	0	---	0.00	30.053 
02:35	54.2	54.2	54.2	96	53.1	0	0	---	0.00	30.053 
02:40	54.2	54.2	54.2	96	53.1	0	0	---	0.00	30.053 
02:45	54.1	54.1	54.1	96	53.0	0	0	---	0.00	30.053 
02:50	53.9	53.9	53.9	96	52.8	0	0	---	0.00	30.053 
02:55	53.9	53.9	53.9	96	52.8	0	0	---	0.00	30.053 
03:00	53.8	53.8	53.8	96	52.7	0	0	---	0.00	30.053 
03:05	53.6	53.6	53.6	96	52.5	0	0	---	0.00	30.053 
03:10	53.6	53.6	53.6	96	52.5	0	0	---	0.00	30.053 
03:15	53.6	53.6	53.6	96	52.5	0	0	---	0.00	30.051 
03:20	53.5	53.5	53.5	96	52.4	0	0	---	0.00	30.051 
03:25	53.5	53.5	53.5	96	52.4	0	0	---	0.00	30.051 
03:30	53.3	53.3	53.3	96	52.2	0	0	---	0.00	30.054 
03:35	53.3	53.3	53.3	96	52.2	0	0	---	0.00	30.054 
03:40	53.3	53.3	53.3	97	52.5	0	0	---	0.00	30.054 
03:45	53.2	53.2	53.2	96	52.1	0	0	---	0.00	30.056 
03:50	53.2	53.2	53.2	97	52.4	0	0	---	0.00	30.056 
03:55	53.3	53.3	53.3	97	52.5	0	0	---	0.00	30.056 
04:00	53.2	53.2	53.2	97	52.4	0	0	---	0.00	30.057 
04:05	53.2	53.2	53.2	97	52.4	0	0	---	0.00	30.057 
04:10	53.2	53.2	53.2	97	52.4	0	0	---	0.00	30.057 
04:15	53.5	53.5	53.5	97	52.7	0	0	---	0.00	30.055 
04:20	53.5	53.5	53.5	97	52.7	0	0	---	0.00	30.055 
04:25	53.3	53.3	53.3	97	52.5	0	0	---	0.00	30.055 
04:30	53.3	53.3	53.3	97	52.5	0	0	---	0.00	30.061 
04:35	53.2	53.2	53.2	97	52.4	0	0	---	0.00	30.061 
04:40	53.1	53.1	53.1	97	52.3	0	0	---	0.00	30.061 
04:45	53.1	53.1	53.1	97	52.3	0	0	---	0.00	30.064 
04:50	53.1	53.1	53.1	97	52.3	0	0	---	0.00	30.064 
04:55	52.9	52.9	52.9	97	52.1	0	0	---	0.00	30.064 
05:00	53.1	53.1	53.1	97	52.3	0	0	---	0.00	30.067 
05:05	52.9	52.9	52.9	97	52.1	0	0	---	0.00	30.067 
05:10	52.9	52.9	52.9	97	52.1	0	0	---	0.00	30.067 
05:15	52.8	52.8	52.8	97	52.0	0	0	---	0.00	30.070 
05:20	52.9	52.9	52.9	97	52.1	0	0	---	0.00	30.070 
05:25	52.8	52.8	52.8	97	52.0	0	0	---	0.00	30.070 
05:30	52.8	52.8	52.8	97	52.0	0	0	---	0.00	30.071 
05:35	52.8	52.8	52.8	97	52.0	0	0	---	0.00	30.071 
05:40	52.6	52.6	52.6	97	51.8	0	0	---	0.00	30.071 
05:45	52.6	52.6	52.6	97	51.8	0	0	---	0.00	30.073 
05:50	52.6	52.6	52.6	97	51.8	0	0	---	0.00	30.073 
05:55	52.5	52.5	52.5	97	51.7	0	0	---	0.00	30.073 
06:00	52.5	52.5	52.5	97	51.7	0	0	---	0.00	30.076 
06:05	52.3	52.3	52.3	97	51.5	0	0	---	0.00	30.076 
06:10	52.3	52.3	52.3	97	51.5	0	0	---	0.00	30.076 
06:15	52.3	52.3	52.3	97	51.5	0	0	---	0.00	30.086 
06:20	52.2	52.2	52.2	97	51.4	0	0	---	0.00	30.086 
06:25	52.2	52.2	52.2	97	51.4	0	0	---	0.00	30.086 
06:30	52.2	52.2	52.2	97	51.4	0	0	---	0.00	30.089 
06:35	52.0	52.0	52.0	97	51.2	0	0	---	0.00	30.089 
06:40	52.0	52.0	52.0	97	51.2	0	0	---	0.00	30.089 
06:45	52.0	52.0	52.0	97	51.2	0	0	---	0.00	30.093 
06:50	52.0	52.0	52.0	97	51.2	0	0	---	0.00	30.093 
06:55	52.0	52.0	52.0	97	51.2	0	0	---	0.00	30.093 
07:00	52.0	52.0	52.0	97	51.2	0	0	---	0.00	30.101 
07:05	52.0	52.0	52.0	97	51.2	0	0	---	0.00	30.101 
07:10	51.9	51.9	51.9	97	51.1	0	0	---	0.00	30.101 
07:15	51.9	51.9	51.9	97	51.1	0	0	---	0.00	30.108 
07:20	51.9	51.9	51.9	97	51.1	0	0	---	0.00	30.108 
07:25	51.9	51.9	51.9	97	51.1	0	0	---	0.00	30.108 
07:30	51.9	51.9	51.9	97	51.1	0	0	---	0.00	30.113 
07:35	51.9	51.9	51.9	97	51.1	0	0	---	0.00	30.113 
07:40	51.9	51.9	51.9	97	51.1	0	0	---	0.00	30.113 
07:45	52.0	52.0	52.0	97	51.2	0	0	---	0.00	30.117 
07:50	52.2	52.2	52.2	98	51.7	0	0	---	0.00	30.117 
07:55	52.3	52.3	52.3	98	51.8	0	0	---	0.00	30.117 
08:00	52.5	52.5	52.5	98	52.0	0	0	---	0.00	30.120 
08:05	52.8	52.8	52.8	98	52.2	0	0	---	0.00	30.120 
08:10	53.1	53.1	53.1	98	52.5	0	0	---	0.00	30.120 
08:15	53.5	53.5	53.5	98	52.9	0	0	---	0.00	30.129 
08:20	54.5	54.5	54.5	98	53.9	0	0	---	0.00	30.129 
08:25	55.0	55.0	55.0	98	54.4	0	0	---	0.00	30.129 
08:30	55.7	55.7	55.7	98	55.1	0	0	---	0.00	30.134 
08:35	56.7	56.7	56.7	98	56.1	0	0	---	0.00	30.134 
08:40	57.3	57.3	57.3	98	56.7	0	0	---	0.00	30.134 
08:45	58.0	58.0	58.0	98	57.4	0	0	---	0.00	30.135 
08:50	58.4	58.4	58.4	98	57.8	0	0	---	0.00	30.135 
08:55	59.0	59.0	59.0	98	58.4	0	1	90	0.00	30.135 
09:00	59.2	59.2	59.2	98	58.6	0	2	90	0.00	30.134 
09:05	59.5	59.5	59.5	98	58.9	0	0	---	0.00	30.134 
09:10	59.8	59.8	59.8	98	59.2	0	0	---	0.00	30.134 
09:15	59.9	59.9	59.9	98	59.3	0	2	90	0.00	30.137 
09:20	60.1	60.1	60.1	98	59.5	0	2	90	0.00	30.137 
09:25	60.4	60.4	60.4	98	59.8	0	1	90	0.00	30.137 
09:30	60.7	60.7	60.7	98	60.1	0	2	90	0.00	30.135 
09:35	61.0	61.0	61.0	98	60.4	0	2	90	0.00	30.135 
09:40	61.2	61.2	61.2	97	60.3	0	2	90	0.00	30.135 
09:45	61.6	61.6	61.6	96	60.4	0	1	90	0.00	30.135 
09:50	62.4	62.4	62.4	94	60.6	1	3	90	0.00	30.135 
09:55	63.1	63.1	63.1	87	59.2	2	5	112	0.00	30.135 
10:00	64.0	64.0	64.0	84	59.1	1	5	112	0.00	30.135 
10:05	65.0	65.0	65.0	82	59.4	1	4	112	0.00	30.135 
10:10	65.8	65.8	65.8	81	59.8	2	5	90	0.00	30.135 
10:15	66.3	66.3	66.3	78	59.2	2	3	90	0.00	30.134 
10:20	66.8	66.8	66.8	77	59.3	2	4	90	0.00	30.134 
10:25	67.3	67.3	67.3	76	59.5	2	4	112	0.00	30.134 
10:30	67.6	67.6	67.6	78	60.5	2	3	90	0.00	30.133 
10:35	68.1	68.1	68.1	76	60.2	1	5	90	0.00	30.133 
10:40	68.4	68.4	68.4	78	61.3	1	3	112	0.00	30.133 
10:45	68.8	68.8	68.8	73	59.8	1	4	112	0.00	30.136 
10:50	68.9	68.9	68.9	72	59.5	2	4	112	0.00	30.136 
10:55	69.1	69.1	69.1	73	60.1	2	4	90	0.00	30.136 
11:00	69.1	69.1	69.1	72	59.7	2	4	90	0.00	30.136 
11:05	69.6	69.6	69.6	71	59.8	1	4	90	0.00	30.136 
11:10	69.6	69.6	69.6	69	59.0	2	5	90	0.00	30.136 
11:15	69.8	69.8	69.8	69	59.2	2	5	90	0.00	30.142 
11:20	70.1	70.1	70.1	67	58.6	2	4	112	0.00	30.142 
11:25	70.4	70.4	70.4	70	60.1	2	5	90	0.00	30.142 
11:30	70.6	70.6	70.6	69	59.9	2	5	90	0.00	30.135 
11:35	70.4	70.4	70.4	68	59.3	2	5	90	0.00	30.135 
11:40	70.1	70.1	70.1	69	59.4	1	3	90	0.00	30.135 
11:45	69.9	69.9	69.9	67	58.4	1	4	90	0.00	30.134 
11:50	69.8	69.8	69.8	68	58.7	1	4	112	0.00	30.134 
11:55	69.8	69.8	69.8	68	58.7	1	5	112	0.00	30.134 
12:00	69.6	69.6	69.6	72	60.2	1	3	112	0.00	30.137 
12:05	69.9	69.9	69.9	71	60.1	1	3	112	0.00	30.137 
12:10	70.4	70.4	70.4	65	58.1	2	6	112	0.00	30.137 
12:15	70.4	70.4	70.4	69	59.7	0	2	112	0.00	30.136 
12:20	70.3	70.3	70.3	69	59.6	1	4	112	0.00	30.136 
12:25	69.8	69.8	69.8	70	59.6	2	5	90	0.00	30.136 
12:30	69.4	69.4	69.4	71	59.6	1	4	90	0.00	30.137 
12:35	69.8	69.8	69.8	71	60.0	1	4	338	0.00	30.137 
12:40	70.6	70.6	70.6	70	60.3	2	7	90	0.00	30.137 
12:45	70.9	70.9	70.9	69	60.2	3	6	90	0.00	30.136 
12:50	71.1	71.1	71.1	71	61.2	3	6	90	0.00	30.136 
12:55	71.5	71.5	71.5	69	60.8	2	5	90	0.00	30.136 
13:00	71.5	71.5	71.5	69	60.8	3	7	90	0.00	30.134 
13:05	71.8	71.8	71.8	66	59.8	2	5	90	0.00	30.134 
13:10	72.0	72.0	72.0	68	60.8	3	5	90	0.00	30.134 
13:15	71.8	71.8	71.8	68	60.7	2	4	90	0.00	30.133 
13:20	71.3	71.3	71.3	69	60.6	3	7	90	0.00	30.133 
13:25	71.1	71.1	71.1	70	60.8	2	5	90	0.00	30.133 
13:30	71.3	71.3	71.3	69	60.6	2	4	90	0.00	30.131 
13:35	72.0	72.0	72.0	69	61.3	1	5	112	0.00	30.131 
13:40	72.1	72.1	72.1	66	60.1	3	5	90	0.00	30.131 
13:45	72.0	72.0	72.0	69	61.3	2	4	90	0.00	30.130 
13:50	72.3	72.3	72.3	70	62.0	1	4	90	0.00	30.130 
13:55	72.7	72.7	72.7	67	61.1	1	5	90	0.00	30.130 
14:00	72.1	72.1	72.1	65	59.7	1	4	90	0.00	30.131 
14:05	72.3	72.3	72.3	68	61.1	1	4	112	0.00	30.131 
14:10	72.3	72.3	72.3	64	59.4	1	3	112	0.00	30.131 
14:15	72.3	72.3	72.3	66	60.3	2	5	112	0.00	30.129 
14:20	72.8	72.8	72.8	65	60.3	2	5	90	0.00	30.129 
14:25	73.2	73.2	73.2	64	60.3	2	7	90	0.00	30.129 
14:30	72.8	72.8	72.8	63	59.5	2	6	90	0.00	30.129 
14:35	72.7	72.7	72.7	63	59.4	1	4	90	0.00	30.129 
14:40	72.7	72.7	72.7	66	60.7	1	3	112	0.00	30.129 
14:45	73.2	73.2	73.2	61	58.9	1	3	90	0.00	30.121 
14:50	73.2	73.2	73.2	63	59.8	1	5	90	0.00	30.121 
14:55	73.5	73.5	73.5	62	59.7	2	5	90	0.00	30.121 
15:00	73.3	73.3	73.3	61	59.0	1	3	90	0.00	30.117 
15:05	73.2	73.2	73.2	64	60.3	2	5	90	0.00	30.117 
15:10	73.0	73.0	73.0	60	58.3	0	2	90	0.00	30.117 
15:15	73.2	73.2	73.2	59	58.0	1	3	90	0.00	30.115 
15:20	73.3	73.3	73.3	65	60.8	2	4	90	0.00	30.115 
15:25	73.2	73.2	73.2	59	58.0	2	5	90	0.00	30.115 
15:30	72.8	72.8	72.8	60	58.1	0	2	90	0.00	30.114 
15:35	72.8	72.8	72.8	56	56.2	1	3	90	0.00	30.114 
15:40	73.3	73.3	73.3	57	57.1	1	5	112	0.00	30.114 
15:45	73.9	73.9	73.9	56	57.2	1	3	112	0.00	30.112 
15:50	74.2	74.2	74.2	55	57.0	1	2	112	0.00	30.112 
15:55	73.9	73.9	73.9	56	57.2	3	5	90	0.00	30.112 
16:00	73.9	73.9	73.9	60	59.1	1	3	112	0.00	30.110 
16:05	74.4	74.4	74.4	61	60.1	0	3	270	0.00	30.110 
16:10	74.4	74.4	74.4	58	58.6	1	4	292	0.00	30.110 
16:15	74.6	74.6	74.6	56	57.8	1	5	135	0.00	30.102 
16:20	74.7	74.7	74.7	53	56.4	1	4	90	0.00	30.102 
16:25	74.9	74.9	74.9	60	60.1	0	3	90	0.00	30.102 
16:30	74.9	74.9	74.9	53	56.6	1	3	90	0.00	30.106 
16:35	74.7	74.7	74.7	55	57.4	0	1	68	0.00	30.106 
16:40	74.9	74.9	74.9	57	58.6	1	4	68	0.00	30.106 
16:45	74.9	74.9	74.9	56	58.1	1	4	90	0.00	30.101 
16:50	74.7	74.7	74.7	55	57.4	1	3	90	0.00	30.101 
16:55	74.7	74.7	74.7	55	57.4	0	1	90	0.00	30.101 
17:00	74.7	74.7	74.7	56	57.9	1	4	90	0.00	30.098 
17:05	74.6	74.6	74.6	57	58.3	0	1	90	0.00	30.098 
17:10	74.4	74.4	74.4	55	57.2	0	2	68	0.00	30.098 
17:15	74.4	74.4	74.4	58	58.6	0	2	68	0.00	30.099 
17:20	74.2	74.2	74.2	56	57.5	1	4	68	0.00	30.099 
17:25	74.2	74.2	74.2	59	58.9	1	3	68	0.00	30.099 
17:30	74.2	74.2	74.2	55	57.0	1	3	68	0.00	30.097 
17:35	74.0	74.0	74.0	54	56.3	1	3	68	0.00	30.097 
17:40	74.0	74.0	74.0	56	57.3	0	1	68	0.00	30.097 
17:45	74.0	74.0	74.0	57	57.8	0	2	68	0.00	30.094 
17:50	74.0	74.0	74.0	58	58.3	0	2	68	0.00	30.094 
17:55	73.9	73.9	73.9	57	57.7	1	3	68	0.00	30.094 
18:00	73.7	73.7	73.7	59	58.5	1	3	90	0.00	30.094 
18:05	73.5	73.5	73.5	57	57.3	0	2	90	0.00	30.094 
18:10	73.5	73.5	73.5	57	57.3	0	2	90	0.00	30.094 
18:15	73.3	73.3	73.3	55	56.1	0	2	90	0.00	30.092 
18:20	73.3	73.3	73.3	56	56.6	0	2	90	0.00	30.092 
18:25	73.2	73.2	73.2	56	56.5	0	2	90	0.00	30.092 
18:30	73.0	73.0	73.0	55	55.9	1	3	90	0.00	30.088 
18:35	73.0	73.0	73.0	58	57.3	1	3	90	0.00	30.088 
18:40	72.8	72.8	72.8	56	56.2	1	3	90	0.00	30.088 
18:45	72.7	72.7	72.7	57	56.6	0	2	90	0.00	30.086 
18:50	72.5	72.5	72.5	58	56.9	0	1	90	0.00	30.086 
18:55	72.3	72.3	72.3	58	56.7	0	2	90	0.00	30.086 
19:00	72.1	72.1	72.1	58	56.5	1	3	90	0.00	30.088 
19:05	72.1	72.1	72.1	59	57.0	0	2	90	0.00	30.088 
19:10	71.8	71.8	71.8	59	56.7	1	2	90	0.00	30.088 
19:15	71.6	71.6	71.6	62	57.9	1	2	90	0.00	30.085 
19:20	71.3	71.3	71.3	63	58.0	1	3	90	0.00	30.085 
19:25	70.9	70.9	70.9	64	58.1	1	3	90	0.00	30.085 
19:30	70.8	70.8	70.8	63	57.6	2	3	90	0.00	30.084 
19:35	70.4	70.4	70.4	63	57.2	1	3	90	0.00	30.084 
19:40	70.1	70.1	70.1	64	57.3	2	4	90	0.00	30.084 
19:45	69.8	69.8	69.8	65	57.5	1	4	90	0.00	30.084 
19:50	69.4	69.4	69.4	65	57.1	0	2	90	0.00	30.084 
19:55	69.1	69.1	69.1	66	57.3	0	2	90	0.00	30.084 
20:00	68.6	68.6	68.6	66	56.8	1	2	90	0.00	30.086 
20:05	68.3	68.3	68.3	67	56.9	0	1	90	0.00	30.086 
20:10	67.9	67.9	67.9	68	56.9	0	1	90	0.00	30.086 
20:15	67.6	67.6	67.6	69	57.1	0	2	90	0.00	30.086 
20:20	67.4	67.4	67.4	70	57.3	3	11	90	0.00	30.086 
20:25	67.3	67.3	67.3	72	58.0	3	7	90	0.00	30.086 
20:30	66.9	66.9	66.9	74	58.3	2	5	90	0.00	30.092 
20:35	66.4	66.4	66.4	75	58.2	2	4	90	0.00	30.092 
20:40	66.1	66.1	66.1	77	58.7	2	5	90	0.00	30.092 
20:45	65.8	65.8	65.8	77	58.4	2	7	90	0.00	30.100 
20:50	65.5	65.5	65.5	78	58.5	2	5	90	0.00	30.100 
20:55	65.2	65.2	65.2	80	58.9	2	5	112	0.00	30.100 
21:00	64.8	64.8	64.8	80	58.5	2	6	112	0.00	30.104 
21:05	64.5	64.5	64.5	81	58.5	2	5	90	0.00	30.104 
21:10	64.3	64.3	64.3	81	58.3	2	6	90	0.00	30.104 
21:15	64.0	64.0	64.0	81	58.0	2	5	90	0.00	30.104 
21:20	63.9	63.9	63.9	81	57.9	1	3	90	0.00	30.104 
21:25	63.7	63.7	63.7	81	57.8	1	4	90	0.00	30.104 
21:30	63.4	63.4	63.4	81	57.5	2	6	90	0.00	30.105 
21:35	63.2	63.2	63.2	82	57.6	1	2	90	0.00	30.105 
21:40	62.9	62.9	62.9	82	57.3	1	2	90	0.00	30.105 
21:45	62.7	62.7	62.7	83	57.5	1	3	90	0.00	30.105 
21:50	62.4	62.4	62.4	83	57.2	0	2	90	0.00	30.105 
21:55	62.1	62.1	62.1	84	57.2	1	3	90	0.00	30.105 
22:00	62.0	62.0	62.0	84	57.1	1	2	90	0.00	30.109 
22:05	61.8	61.8	61.8	84	56.9	0	2	90	0.00	30.109 
22:10	61.5	61.5	61.5	85	56.9	0	1	90	0.00	30.109 
22:15	61.3	61.3	61.3	85	56.7	0	1	90	0.00	30.108 
22:20	61.2	61.2	61.2	85	56.6	0	1	90	0.00	30.108 
22:25	61.0	61.0	61.0	86	56.8	0	1	90	0.00	30.108 
22:30	60.9	60.9	60.9	86	56.7	0	2	90	0.00	30.108 
22:35	60.7	60.7	60.7	86	56.5	1	2	90	0.00	30.108 
22:40	60.5	60.5	60.5	86	56.3	0	2	90	0.00	30.108 
22:45	60.4	60.4	60.4	87	56.5	0	2	90	0.00	30.108 
22:50	60.2	60.2	60.2	87	56.3	0	1	90	0.00	30.108 
22:55	60.1	60.1	60.1	87	56.2	0	2	90	0.00	30.108 
23:00	59.9	59.9	59.9	87	56.0	0	1	90	0.00	30.105 
23:05	59.8	59.8	59.8	88	56.2	1	3	90	0.00	30.105 
23:10	59.6	59.6	59.6	88	56.0	0	2	90	0.00	30.105 
23:15	59.5	59.5	59.5	88	55.9	0	2	90	0.00	30.105 
23:20	59.3	59.3	59.3	88	55.7	0	1	90	0.00	30.105 
23:25	59.2	59.2	59.2	88	55.6	0	1	90	0.00	30.105 
23:30	59.0	59.0	59.0	88	55.4	0	1	90	0.00	30.104 
23:35	58.9	58.9	58.9	88	55.3	0	1	90	0.00	30.104 
23:40	58.7	58.7	58.7	88	55.2	0	1	90	0.00	30.104 
23:45	58.6	58.6	58.6	89	55.4	0	1	90	0.00	30.100 
23:50	58.6	58.6	58.6	89	55.4	0	1	90	0.00	30.100 
23:55	58.4	58.4	58.4	89	55.2	0	1	90	0.00	30.100 

CoCoRaHS
IN-AL-39
A2 Web Hosting
Creative Commons License
GoDaddy
Look for:

loaded 2017-12-13 15:50:12 • last modified 2010-11-18 10:43:29
Privacy PolicyDisclaimer
• wx.awcolley.com is powered by PmWiki v.2002016 •
• all content (unless otherwise noted) © 2017 A W Colley